Flight Track Log - Related Links

Times and Time Zones

All times are in EDT time to prevent confusion due to time zone crossing. See the SKW5510 flight status page for this flight to view local times or setup timezone preferences in your user account.

Time Position Orientation Groundspeed Altitude Reporting Facility
EDT Latitude Longitude Course Direction KTS MPH feet Rate Location/Type
Tue 16:31:23 34.7133 -92.2544 17° North 180 207 1,000  Level Memphis Center
Tue 16:32:42 34.7017 -92.3453 261° West 243 280 3,500 2,120 Climbing Memphis Center
Tue 16:33:36 34.7508 -92.3919 322° Northwest 295 339 5,700 2,780 Climbing Memphis Center
Tue 16:34:00 35.0067 -92.0700 15° North  Level FlightAware Approximate
Tue 16:34:45 34.8492 -92.3764 North 289 333 9,200  Level Memphis Center
Tue 16:35:00 35.1087 -92.0462 10° North  Level FlightAware Approximate
Tue 16:35:45 34.9206 -92.3453 20° North 289 333 11,100  Level Memphis Center
Tue 16:36:00 35.2096 -92.0172 17° North  Level FlightAware Approximate
Tue 16:36:45 35.0131 -92.3144 15° North 319 367 13,100  Level Memphis Center
Tue 16:37:45 35.1011 -92.2836 16° North 331 381 15,300 1,950 Climbing Memphis Center
Tue 16:38:45 35.1956 -92.2500 16° North 345 397 17,000 1,750 Climbing Memphis Center
Tue 16:39:45 35.3003 -92.2117 17° North 350 403 18,800 1,750 Climbing Memphis Center
Tue 16:40:45 35.3989 -92.1808 14° North 350 403 20,500 1,550 Climbing Memphis Center
Tue 16:41:45 35.4972 -92.1447 17° North 363 418 21,900 1,500 Climbing Memphis Center
Tue 16:42:45 35.5958 -92.1111 15° North 363 418 23,500 1,300 Climbing Memphis Center
Tue 16:43:45 35.6964 -92.0747 16° North 363 418 24,500 1,150 Climbing Memphis Center
Tue 16:44:45 35.7969 -92.0386 16° North 376 433 25,800 1,100 Climbing Memphis Center
Tue 16:45:45 35.9039 -92.0022 15° North 381 438 26,700 850 Climbing Memphis Center
Tue 16:46:45 36.0067 -91.9633 17° North 381 438 27,500 750 Climbing Memphis Center
Tue 16:47:45 36.1133 -91.9242 17° North 387 445 28,200 800 Climbing Memphis Center
Tue 16:48:45 36.2306 -91.8878 14° North 404 465 29,100 800 Climbing Memphis Center
Tue 16:49:45 36.3394 -91.8461 17° North 414 476 29,800 700 Climbing Memphis Center
Tue 16:50:45 36.4525 -91.8042 17° North 420 483 30,500 566 Climbing Memphis Center
Tue 16:52:24 36.6333 -91.7383 16° North 427 491 31,300 559 Climbing Kansas City Center
Tue 16:53:26 36.7486 -91.6969 16° North 430 495 32,000 823 Climbing Kansas City Center
Tue 16:54:28 36.8631 -91.6553 16° North 429 494 33,000 484 Climbing Kansas City Center
Tue 16:55:30 36.9761 -91.6147 16° North 424 488 33,000  Level Kansas City Center
Tue 16:56:32 37.0878 -91.5733 16° North 422 486 33,000  Level Kansas City Center
Tue 16:57:34 37.2261 -91.5208 17° North 428 493 33,000  Level Kansas City Center
Tue 16:58:36 37.3381 -91.4808 16° North 421 484 33,000  Level Kansas City Center
Tue 16:59:38 37.4481 -91.4397 17° North 415 478 33,000  Level Kansas City Center
Tue 17:00:40 37.5578 -91.3994 16° North 413 475 33,000  Level Kansas City Center
Tue 17:01:42 37.6661 -91.3597 16° North 408 470 33,000  Level Kansas City Center
Tue 17:02:44 37.7936 -91.3122 16° North 401 461 33,000  Level Kansas City Center
Tue 17:03:46 37.8989 -91.2733 16° North 397 457 33,000  Level Kansas City Center
Tue 17:04:48 38.0017 -91.2331 17° North 391 450 33,000  Level Kansas City Center
Tue 17:05:50 38.1036 -91.1942 17° North 386 444 33,000  Level Kansas City Center
Tue 17:06:52 38.2044 -91.1575 16° North 385 443 33,000  Level Kansas City Center
Tue 17:07:54 38.3067 -91.1181 17° North 385 443 33,000  Level Kansas City Center
Tue 17:08:56 38.4078 -91.0808 16° North 382 440 33,000  Level Kansas City Center
Tue 17:09:58 38.5303 -91.0339 17° North 381 438 33,000  Level Kansas City Center
Tue 17:11:00 38.6328 -90.9953 16° North 381 438 33,000  Level Kansas City Center
Tue 17:12:02 38.7358 -90.9514 18° North 385 443 33,000  Level Kansas City Center
Tue 17:13:04 38.8375 -90.8950 23° Northeast 390 449 33,000  Level Kansas City Center
Tue 17:14:06 38.9403 -90.8383 23° Northeast 394 453 33,000  Level Kansas City Center
Tue 17:15:08 39.0450 -90.7822 23° Northeast 399 459 33,000  Level Kansas City Center
Tue 17:16:10 39.1500 -90.7256 23° Northeast 404 465 33,000  Level Kansas City Center
Tue 17:17:12 39.2767 -90.6556 23° Northeast 410 472 33,000  Level Kansas City Center
Tue 17:18:14 39.3831 -90.5969 23° Northeast 413 475 33,000  Level Kansas City Center
Tue 17:19:16 39.4889 -90.5394 23° Northeast 413 475 33,000  Level Kansas City Center
Tue 17:20:18 39.5950 -90.4814 23° Northeast 412 474 33,000  Level Kansas City Center
Tue 17:21:20 39.7003 -90.4228 23° Northeast 412 474 33,000  Level Kansas City Center
Tue 17:22:23 39.8194 -90.3561 23° Northeast 410 472 33,000  Level Kansas City Center
Tue 17:23:25 39.9236 -90.2964 24° Northeast 408 470 33,000  Level Kansas City Center
Tue 17:24:27 40.0275 -90.2369 24° Northeast 408 470 33,000  Level Kansas City Center
Tue 17:25:29 40.1319 -90.1786 23° Northeast 408 470 33,000  Level Kansas City Center
Tue 17:26:31 40.2361 -90.1194 23° Northeast 406 467 33,000  Level Kansas City Center
Tue 17:27:33 40.3397 -90.0608 23° Northeast 405 466 33,000  Level Kansas City Center
Tue 17:28:35 40.4644 -89.9889 24° Northeast 406 467 33,000  Level Kansas City Center
Tue 17:29:37 40.5592 -89.9350 23° Northeast 404 465 33,000  Level Kansas City Center
Tue 17:30:39 40.6778 -89.8664 24° Northeast 408 470 33,000 -290 Level Kansas City Center
Tue 17:31:41 40.7822 -89.8064 24° Northeast 412 474 32,400 -1,667 Descending Kansas City Center
Tue 17:32:45 40.9042 -89.7369 23° Northeast 422 486 29,500 -2,476 Descending Chicago Center
Tue 17:33:47 41.0022 -89.6800 24° Northeast 423 487 27,200 -2,323 Descending Chicago Center
Tue 17:34:49 41.1103 -89.6175 24° Northeast 426 490 24,700 -1,839 Descending Chicago Center
Tue 17:35:51 41.1894 -89.5192 43° Northeast 400 460 23,400 -1,776 Descending Chicago Center
Tue 17:36:54 41.2478 -89.3706 62° Northeast 379 436 21,000 -2,160 Descending Chicago Center
Tue 17:37:56 41.2978 -89.2469 62° Northeast 379 436 18,900 -2,032 Descending Chicago Center
Tue 17:38:58 41.3508 -89.1144 62° Northeast 383 441 16,800 -1,984 Descending Chicago Center
Tue 17:40:00 41.4011 -88.9883 62° Northeast 388 447 14,800 -1,984 Descending Chicago Center
Tue 17:41:02 41.4497 -88.8664 62° Northeast 377 434 12,700 -1,790 Descending Chicago Center
Tue 17:42:04 41.4969 -88.7456 62° Northeast 373 429 11,100 -823 Descending Chicago Center
Tue 17:43:06 41.5472 -88.6183 62° Northeast 387 445 11,000 -48 Descending Chicago Center
Tue 17:44:08 41.6086 -88.4692 61° Northeast 388 447 11,000 -48 Level Chicago Center
Tue 17:45:10 41.6744 -88.3544 52° Northeast 389 448 10,900 -484 Descending Chicago Center
Tue 17:46:12 41.7311 -88.2572 52° Northeast 336 387 10,000 -919 Descending Chicago Center
Tue 17:47:14 41.7853 -88.1636 52° Northeast 320 368 9,000 -960 Descending Chicago Center
Tue 17:48:17 41.8442 -88.0775 47° Northeast 315 362 8,000 -960 Descending Chicago Center
Tue 17:49:19 41.9167 -87.9833 44° Northeast 299 344 7,000 -488 Descending Chicago TRACON
Tue 17:50:20 41.9500 -87.8833 66° East 329 379 7,000 -378 Level Chicago TRACON
Tue 17:51:26 42.0000 -87.7833 56° Northeast 253 291 6,200 -1,050 Descending Chicago TRACON
Tue 17:52:20 42.0333 -87.7000 62° Northeast 247 284 4,900 -1,368 Descending Chicago TRACON
Tue 17:53:20 42.0833 -87.6500 37° Northeast 253 291 3,600 -950 Descending Chicago TRACON
Tue 17:54:20 42.1000 -87.7167 289° West 194 223 3,000 -300 Descending Chicago TRACON
Tue 17:55:20 42.0667 -87.7667 228° Southwest 172 198 3,000  Level Chicago TRACON

Login

Don't have an account? Register now (free) for customized features, flight alerts, and more!